Time;durP1;ratioP1;P1;durP2;ratioP2;P2;SDS_P1;SDS_P2;PMS_P1;PMS_P2;Temp;Humidity;BMP_temperature;BMP_pressure;BME280_temperature;BME280_humidity;BME280_pressure;Samples;Min_cycle;Max_cycle;Signal;HPM_P1;HPM_P2
2023/10/19 00:01:38;;;;;;;3.40;2.47;;;;;;;;;;20765247;28;20223;-77
2023/10/19 00:11:40;;;;;;;3.43;1.90;;;;;;;;;;20747423;28;20235;-77
2023/10/19 00:21:54;;;;;;;3.50;2.27;;;;;;;;;;20767325;28;20694;-77
2023/10/19 00:32:00;;;;;;;3.20;1.97;;;;;;;;;;20770913;23;20223;-64
2023/10/19 00:42:02;;;;;;;2.93;2.00;;;;;;;;;;20627343;28;20262;-64
2023/10/19 00:52:16;;;;;;;3.67;2.60;;;11.00;99.90;;;;;;20651082;28;20240;-64
2023/10/19 01:12:38;;;;;;;3.00;2.13;;;;;;;;;;20646594;28;20674;-65
2023/10/19 01:33:15;;;;;;;3.83;2.23;;;;;;;;;;20665762;28;20286;-65
2023/10/19 01:43:30;;;;;;;3.70;2.20;;;;;;;;;;20646703;28;20232;-65
2023/10/19 01:53:33;;;;;;;3.50;2.37;;;;;;;;;;20652932;28;20215;-64
2023/10/19 02:03:35;;;;;;;3.23;1.80;;;11.00;99.90;;;;;;20643751;28;20286;-65
2023/10/19 02:13:39;;;;;;;2.80;2.07;;;;;;;;;;20644898;28;20565;-65
2023/10/19 02:23:41;;;;;;;5.00;2.90;;;11.40;99.90;;;;;;20642306;28;20650;-64
2023/10/19 02:33:45;;;;;;;3.87;2.00;;;;;;;;;;20653226;28;20219;-65
2023/10/19 02:44:30;;;;;;;3.33;2.13;;;11.10;99.90;;;;;;20661083;28;20216;-65
2023/10/19 02:54:20;;;;;;;3.80;2.67;;;;;;;;;;20655012;28;20254;-64
2023/10/19 03:04:22;;;;;;;3.70;2.40;;;;;;;;;;20659724;28;20238;-64
2023/10/19 03:14:25;;;;;;;3.90;2.93;;;;;;;;;;20655094;28;20227;-64
2023/10/19 03:24:36;;;;;;;4.47;3.03;;;;;;;;;;20633878;28;20223;-64
2023/10/19 03:34:38;;;;;;;3.93;2.33;;;;;;;;;;20677162;28;20687;-64
2023/10/19 03:44:53;;;;;;;3.27;2.67;;;;;;;;;;20674371;28;20272;-64
2023/10/19 03:54:55;;;;;;;4.03;2.90;;;;;;;;;;20647215;28;20273;-65
2023/10/19 04:04:57;;;;;;;4.07;2.83;;;;;;;;;;20643556;28;20583;-65
2023/10/19 04:15:16;;;;;;;4.07;2.70;;;;;;;;;;20666198;28;20231;-65
2023/10/19 04:25:19;;;;;;;4.90;2.97;;;;;;;;;;20662001;28;20286;-65
2023/10/19 04:35:21;;;;;;;4.17;2.60;;;;;;;;;;20641194;28;20216;-65
2023/10/19 04:45:23;;;;;;;4.20;2.47;;;;;;;;;;20681302;28;20263;-65
2023/10/19 04:55:27;;;;;;;3.40;2.40;;;;;;;;;;20678191;28;20228;-66
2023/10/19 05:05:29;;;;;;;3.30;2.40;;;;;;;;;;20635403;28;20574;-65
2023/10/19 05:15:33;;;;;;;7.57;3.90;;;;;;;;;;20667308;28;20614;-65
2023/10/19 05:25:36;;;;;;;5.97;3.67;;;;;;;;;;20672063;28;20273;-65
2023/10/19 05:35:40;;;;;;;3.00;2.10;;;;;;;;;;20634232;28;20695;-65
2023/10/19 05:45:41;;;;;;;3.60;2.53;;;11.60;99.90;;;;;;20655784;28;20277;-65
2023/10/19 05:55:44;;;;;;;3.40;2.47;;;;;;;;;;20669761;28;20219;-65
2023/10/19 06:05:46;;;;;;;4.13;2.53;;;;;;;;;;20656130;28;20208;-65
2023/10/19 06:15:51;;;;;;;3.10;2.23;;;;;;;;;;20639570;28;20243;-65
2023/10/19 06:25:53;;;;;;;3.20;2.43;;;;;;;;;;20656792;28;20283;-65
2023/10/19 06:35:55;;;;;;;6.37;3.73;;;;;;;;;;20720559;23;20701;-67
2023/10/19 06:45:56;;;;;;;4.23;2.87;;;;;;;;;;20736383;28;20215;-67
2023/10/19 06:55:59;;;;;;;4.87;3.50;;;11.60;99.90;;;;;;20747149;28;20271;-67
2023/10/19 07:06:02;;;;;;;4.17;2.50;;;;;;;;;;20757819;28;20207;-67
2023/10/19 07:16:04;;;;;;;3.93;3.17;;;;;;;;;;20719593;28;20223;-67
2023/10/19 07:26:06;;;;;;;4.83;2.77;;;;;;;;;;20731257;28;20235;-67
2023/10/19 07:36:15;;;;;;;5.83;3.37;;;11.70;99.90;;;;;;20722171;28;20227;-68
2023/10/19 07:46:18;;;;;;;4.20;2.80;;;;;;;;;;20725026;28;20211;-67
2023/10/19 07:56:20;;;;;;;3.00;2.40;;;;;;;;;;20711222;28;20588;-67
2023/10/19 08:06:22;;;;;;;4.80;2.73;;;;;;;;;;20692221;28;20219;-67
2023/10/19 08:16:27;;;;;;;5.33;2.97;;;;;;;;;;20726771;28;20637;-67
2023/10/19 08:26:29;;;;;;;3.90;2.50;;;;;;;;;;20695515;28;20237;-67
2023/10/19 08:36:31;;;;;;;4.40;3.23;;;;;;;;;;20681640;28;20223;-67
2023/10/19 08:46:33;;;;;;;4.30;3.13;;;;;;;;;;20715734;28;20261;-67
2023/10/19 08:56:35;;;;;;;3.63;2.87;;;;;;;;;;20710563;28;20273;-67
2023/10/19 09:06:45;;;;;;;4.23;3.13;;;;;;;;;;20739275;28;20211;-67
2023/10/19 09:16:56;;;;;;;5.23;3.23;;;;;;;;;;20723422;28;20274;-67
2023/10/19 09:26:58;;;;;;;4.37;3.10;;;;;;;;;;20722859;28;20215;-67
2023/10/19 09:37:00;;;;;;;4.77;3.30;;;;;;;;;;20689258;28;20257;-67
2023/10/19 09:47:03;;;;;;;5.17;3.43;;;13.50;99.90;;;;;;20689802;28;20223;-67
2023/10/19 09:57:16;;;;;;;3.90;2.80;;;;;;;;;;20690412;28;20223;-67
2023/10/19 10:07:19;;;;;;;4.03;2.40;;;;;;;;;;20781995;28;20283;-68
2023/10/19 10:17:22;;;;;;;4.13;3.30;;;;;;;;;;20788485;28;20241;-68
2023/10/19 10:27:25;;;;;;;6.23;2.90;;;;;;;;;;20773217;28;20272;-68
2023/10/19 10:37:27;;;;;;;4.90;3.10;;;;;;;;;;20786904;28;20235;-68
2023/10/19 10:47:29;;;;;;;3.93;3.10;;;;;;;;;;20790192;28;20219;-67
2023/10/19 10:57:32;;;;;;;4.57;2.67;;;;;;;;;;20768776;28;20241;-68
2023/10/19 11:07:34;;;;;;;3.73;2.40;;;;;;;;;;20781024;28;20256;-67
2023/10/19 11:17:44;;;;;;;7.87;4.27;;;13.60;99.90;;;;;;20772141;28;20222;-69
2023/10/19 11:27:47;;;;;;;5.30;3.83;;;;;;;;;;20793764;28;20210;-67
2023/10/19 11:37:53;;;;;;;5.43;3.30;;;;;;;;;;20779259;28;20214;-67
2023/10/19 11:47:56;;;;;;;3.20;1.70;;;;;;;;;;20787706;28;20296;-67
2023/10/19 11:57:58;;;;;;;3.23;2.00;;;;;;;;;;20779761;28;20218;-67
2023/10/19 12:08:00;;;;;;;6.23;2.23;;;;;;;;;;20794313;28;20210;-67
2023/10/19 12:18:03;;;;;;;4.33;2.23;;;;;;;;;;20793593;28;20223;-67
2023/10/19 12:28:04;;;;;;;4.80;2.20;;;;;;;;;;20791701;28;20222;-67
2023/10/19 12:38:07;;;;;;;3.13;2.27;;;;;;;;;;20791037;28;20316;-67
2023/10/19 12:48:10;;;;;;;2.83;2.17;;;;;;;;;;20794862;28;20273;-66
2023/10/19 12:58:15;;;;;;;2.70;1.87;;;;;;;;;;20795510;23;20301;-87
2023/10/19 13:08:18;;;;;;;3.87;2.30;;;;;;;;;;20747564;28;20218;-86
2023/10/19 13:18:21;;;;;;;3.47;2.13;;;;;;;;;;20742613;28;20211;-86
2023/10/19 13:28:22;;;;;;;4.53;2.20;;;;;;;;;;20702648;28;20218;-86
2023/10/19 13:38:24;;;;;;;3.03;1.97;;;;;;;;;;20688022;28;20572;-86
2023/10/19 13:48:26;;;;;;;5.40;3.57;;;;;;;;;;20737099;28;20207;-87
2023/10/19 13:58:27;;;;;;;4.50;3.00;;;;;;;;;;20722805;28;20223;-87
2023/10/19 14:08:30;;;;;;;3.00;1.93;;;;;;;;;;20745522;28;20195;-87
2023/10/19 14:18:32;;;;;;;2.20;1.67;;;;;;;;;;20775926;28;20856;-87
2023/10/19 14:28:35;;;;;;;7.87;5.00;;;;;;;;;;20715164;28;20949;-87
2023/10/19 14:38:39;;;;;;;4.17;2.97;;;;;;;;;;20760049;28;20223;-87
2023/10/19 14:48:40;;;;;;;3.77;2.03;;;;;;;;;;20746620;28;20277;-87
2023/10/19 14:58:42;;;;;;;1.90;1.60;;;;;;;;;;20729596;28;20288;-86
2023/10/19 15:08:44;;;;;;;3.60;1.80;;;;;;;;;;20744354;28;20278;-87
2023/10/19 15:18:45;;;;;;;3.23;1.83;;;;;;;;;;20717812;28;20215;-88
2023/10/19 15:28:47;;;;;;;2.50;1.93;;;;;;;;;;20759115;28;20522;-86
2023/10/19 15:38:51;;;;;;;2.30;1.80;;;;;;;;;;20717111;28;20278;-87
2023/10/19 15:48:53;;;;;;;2.90;2.20;;;;;;;;;;20774757;28;20203;-88
2023/10/19 15:58:56;;;;;;;5.23;2.20;;;;;;;;;;20742883;28;20634;-88
2023/10/19 16:08:57;;;;;;;4.07;2.70;;;;;;;;;;20740954;28;20218;-86
2023/10/19 16:18:59;;;;;;;4.33;3.37;;;;;;;;;;20757192;28;20223;-86
2023/10/19 16:29:05;;;;;;;4.30;2.77;;;;;;;;;;20767296;28;20321;-86
2023/10/19 16:39:08;;;;;;;4.23;3.30;;;;;;;;;;20700106;28;20663;-85
2023/10/19 16:49:10;;;;;;;4.47;2.73;;;;;;;;;;20748346;28;20755;-86
2023/10/19 16:59:11;;;;;;;3.63;2.87;;;;;;;;;;20709549;28;20227;-86
2023/10/19 17:09:18;;;;;;;3.90;2.57;;;;;;;;;;20749816;28;20273;-86
2023/10/19 17:19:21;;;;;;;3.37;2.73;;;;;;;;;;20727839;28;20293;-87
2023/10/19 17:29:25;;;;;;;4.27;2.90;;;;;;;;;;20737469;28;20277;-87
2023/10/19 17:39:29;;;;;;;3.63;2.77;;;;;;;;;;20757006;28;20249;-87
2023/10/19 17:49:31;;;;;;;4.10;3.20;;;;;;;;;;20735251;28;20210;-87
2023/10/19 17:59:33;;;;;;;4.43;3.20;;;;;;;;;;20725241;28;20227;-88
2023/10/19 18:09:39;;;;;;;4.47;2.63;;;;;;;;;;20734387;28;20210;-88
2023/10/19 18:19:43;;;;;;;5.30;4.43;;;;;;;;;;20723943;28;20215;-89
2023/10/19 18:29:45;;;;;;;6.60;4.97;;;;;;;;;;20756287;28;20284;-89
2023/10/19 18:39:50;;;;;;;4.87;3.50;;;;;;;;;;20733820;28;20269;-88
2023/10/19 19:35:11;;;;;;;3.33;2.30;;;;;;;;;;20771893;28;20291;-89
2023/10/19 19:45:16;;;;;;;2.77;1.50;;;;;;;;;;20731004;28;20223;-87
2023/10/19 19:55:17;;;;;;;2.70;1.30;;;;;;;;;;20755031;28;20253;-89
2023/10/19 20:05:25;;;;;;;1.53;1.30;;;;;;;;;;20730263;28;20259;-91
2023/10/19 20:16:05;;;;;;;2.13;1.50;;;;;;;;;;20774704;28;20226;-90
2023/10/19 20:26:58;;;;;;;2.30;1.70;;;;;;;;;;20706885;28;20280;-89
2023/10/19 20:37:04;;;;;;;2.37;1.50;;;;;;;;;;20753211;28;20250;-89
2023/10/19 20:47:10;;;;;;;2.97;2.20;;;;;;;;;;20730323;28;20219;-89
2023/10/19 20:57:22;;;;;;;3.33;1.97;;;;;;;;;;20731371;28;20222;-89
2023/10/19 21:07:29;;;;;;;3.43;2.00;;;;;;;;;;20758596;28;20252;-89
2023/10/19 21:17:31;;;;;;;3.07;2.13;;;;;;;;;;20681956;28;20231;-87
2023/10/19 21:27:32;;;;;;;4.10;3.30;;;;;;;;;;20739700;28;20276;-87
2023/10/19 21:37:34;;;;;;;2.50;2.00;;;;;;;;;;20732099;28;20712;-87
2023/10/19 21:47:39;;;;;;;2.50;1.90;;;;;;;;;;20727531;28;20761;-88
2023/10/19 21:57:41;;;;;;;2.87;1.80;;;;;;;;;;20717356;28;20276;-88
2023/10/19 22:07:43;;;;;;;3.00;2.13;;;;;;;;;;20697678;28;20218;-88
2023/10/19 22:17:47;;;;;;;3.80;2.50;;;;;;;;;;20748484;28;20293;-88
2023/10/19 22:27:52;;;;;;;3.40;2.33;;;;;;;;;;20715152;28;20219;-88
2023/10/19 22:37:55;;;;;;;2.43;1.90;;;;;;;;;;20719111;28;20226;-88
2023/10/19 22:47:56;;;;;;;3.03;2.10;;;;;;;;;;20720681;28;20514;-88
2023/10/19 22:57:58;;;;;;;2.80;2.00;;;;;;;;;;20756271;28;20512;-88
2023/10/19 23:08:00;;;;;;;3.23;2.00;;;;;;;;;;20700801;28;20632;-88
2023/10/19 23:18:02;;;;;;;2.80;1.93;;;;;;;;;;20721049;28;20628;-89
2023/10/19 23:28:05;;;;;;;3.07;2.33;;;;;;;;;;20743245;28;20731;-89
2023/10/19 23:38:07;;;;;;;3.17;2.27;;;;;;;;;;20735386;28;20223;-90
